Time;durP1;ratioP1;P1;durP2;ratioP2;P2;SDS_P1;SDS_P2;PMS_P1;PMS_P2;Temp;Humidity;BMP_temperature;BMP_pressure;BME280_temperature;BME280_humidity;BME280_pressure;Samples;Min_cycle;Max_cycle;Signal;HPM_P1;HPM_P2
2021/01/22 00:00:24;;;;;;;10.20;6.00;;;;;;;2.95;97.01;94404.00;986160;30;20024;-57
2021/01/22 00:00:55;;;;;;;10.00;6.28;;;;;;;2.98;97.19;94409.72;978864;30;20025;-56
2021/01/22 00:01:25;;;;;;;9.05;6.22;;;;;;;2.81;97.67;94393.19;975322;30;20501;-58
2021/01/22 00:01:59;;;;;;;10.63;6.60;;;;;;;2.86;98.13;94399.72;986225;30;20383;-60
2021/01/22 00:02:30;;;;;;;10.57;5.93;;;;;;;2.88;97.70;94395.97;986202;30;20027;-55
2021/01/22 00:03:00;;;;;;;10.77;6.25;;;;;;;2.92;97.63;94402.50;978792;30;20405;-56
2021/01/22 00:03:31;;;;;;;11.50;6.30;;;;;;;2.92;97.53;94401.69;986225;30;20099;-56
2021/01/22 00:04:02;;;;;;;9.80;5.90;;;;;;;2.93;97.91;94395.47;982499;30;20544;-56
2021/01/22 00:04:33;;;;;;;9.98;5.65;;;;;;;2.87;97.53;94393.50;971678;30;20033;-60
2021/01/22 00:05:04;;;;;;;9.95;6.18;;;;;;;2.89;97.77;94394.16;978884;30;20047;-57
2021/01/22 00:05:35;;;;;;;9.20;5.70;;;;;;;2.86;97.73;94387.47;986185;30;20035;-57
2021/01/22 00:06:05;;;;;;;8.45;5.15;;;;;;;2.87;97.38;94385.66;986172;30;20024;-57
2021/01/22 00:06:39;;;;;;;9.48;5.68;;;;;;;2.92;97.25;94385.97;986172;30;20059;-56
2021/01/22 00:07:10;;;;;;;9.02;5.32;;;;;;;2.90;97.18;94377.47;986217;30;20467;-60
2021/01/22 00:07:41;;;;;;;8.35;5.10;;;;;;;2.97;96.92;94381.03;978877;30;20084;-59
2021/01/22 00:08:11;;;;;;;7.35;4.43;;;;;;;2.98;97.09;94377.44;978855;30;20033;-62
2021/01/22 00:08:42;;;;;;;9.27;5.30;;;;;;;3.01;96.81;94384.94;978883;30;20036;-59
2021/01/22 00:09:13;;;;;;;9.30;4.97;;;;;;;3.01;96.83;94377.09;986172;30;20024;-58
2021/01/22 00:09:44;;;;;;;11.45;6.07;;;;;;;2.99;97.16;94377.25;978898;30;20044;-57
2021/01/22 00:10:14;;;;;;;9.13;5.40;;;;;;;3.01;97.39;94374.47;982655;30;20027;-57
2021/01/22 00:10:45;;;;;;;9.20;5.43;;;;;;;3.04;97.17;94379.38;982602;30;20447;-60
2021/01/22 00:11:16;;;;;;;8.10;5.50;;;;;;;3.04;97.15;94376.75;982697;30;20028;-55
2021/01/22 00:11:47;;;;;;;9.30;5.28;;;;;;;3.00;96.98;94362.34;978742;30;20040;-60
2021/01/22 00:12:18;;;;;;;8.77;5.60;;;;;;;3.05;96.92;94375.78;989860;30;20431;-55
2021/01/22 00:12:48;;;;;;;9.63;5.90;;;;;;;3.07;97.23;94373.81;975276;30;20542;-57
2021/01/22 00:13:19;;;;;;;9.90;5.93;;;;;;;3.07;97.09;94371.19;989793;30;20023;-67
2021/01/22 00:13:50;;;;;;;9.88;5.47;;;;;;;3.05;97.09;94367.91;989899;30;20096;-60
2021/01/22 00:14:20;;;;;;;9.73;5.80;;;;;;;2.98;97.07;94367.75;978836;30;20048;-56
2021/01/22 00:14:51;;;;;;;10.45;5.43;;;;;;;2.92;97.18;94336.16;989944;30;20031;-57
2021/01/22 00:15:21;;;;;;;11.25;5.50;;;;;;;2.96;96.82;94350.56;978832;30;20091;-55
2021/01/22 00:15:52;;;;;;;9.38;5.43;;;;;;;3.04;96.78;94350.53;986175;30;20032;-55
2021/01/22 00:16:23;;;;;;;8.73;4.90;;;;;;;3.07;96.97;94346.78;982489;30;20392;-60
2021/01/22 00:16:54;;;;;;;8.20;4.95;;;;;;;3.07;97.07;94339.72;986205;30;20031;-55
2021/01/22 00:17:24;;;;;;;7.55;5.20;;;;;;;3.08;96.88;94343.94;978900;30;20086;-61
2021/01/22 00:17:55;;;;;;;8.48;4.93;;;;;;;2.80;96.77;94302.47;989868;30;20027;-57
2021/01/22 00:18:26;;;;;;;8.50;4.95;;;;;;;2.99;96.81;94337.09;982431;30;20128;-58
2021/01/22 00:18:56;;;;;;;7.90;4.90;;;;;;;3.00;97.16;94330.88;986223;30;20059;-58
2021/01/22 00:19:27;;;;;;;9.25;5.30;;;;;;;3.03;97.24;94335.81;982507;30;20051;-64
2021/01/22 00:19:58;;;;;;;8.45;4.90;;;;;;;3.07;96.76;94334.47;978884;30;20037;-62
2021/01/22 00:20:28;;;;;;;9.43;4.93;;;;;;;3.09;97.01;94327.25;986125;30;20024;-64
2021/01/22 00:20:59;;;;;;;9.30;5.10;;;;;;;3.10;96.79;94318.41;982512;30;20062;-63
2021/01/22 00:21:30;;;;;;;9.45;5.20;;;;;;;3.08;96.29;94309.84;982455;30;20472;-57
2021/01/22 00:22:01;;;;;;;9.70;5.00;;;;;;;3.14;96.60;94311.81;989961;30;20059;-63
2021/01/22 00:22:31;;;;;;;8.25;5.18;;;;;;;3.13;96.36;94314.59;982441;30;20123;-62
2021/01/22 00:23:04;;;;;;;8.38;4.80;;;;;;;3.16;96.84;94307.22;986086;30;20036;-64
2021/01/22 00:23:37;;;;;;;9.27;5.10;;;;;;;3.14;96.65;94311.00;986145;30;20020;-59
2021/01/22 00:24:08;;;;;;;7.00;4.70;;;;;;;3.13;96.39;94311.97;982467;30;20086;-58
2021/01/22 00:24:38;;;;;;;9.23;5.05;;;;;;;3.10;96.60;94313.16;986110;30;20073;-61
2021/01/22 00:25:10;;;;;;;8.05;4.70;;;;;;;3.09;96.73;94310.69;982599;30;20415;-60
2021/01/22 00:25:41;;;;;;;8.38;4.93;;;;;;;3.08;96.89;94309.84;978769;30;20036;-59
2021/01/22 00:26:12;;;;;;;10.38;5.18;;;;;;;3.05;97.00;94304.97;975241;30;20076;-61
2021/01/22 00:26:42;;;;;;;8.10;4.90;;;;;;;3.08;97.26;94309.06;982495;30;20036;-58
2021/01/22 00:27:13;;;;;;;7.10;4.43;;;;;;;3.10;97.00;94310.53;979032;30;20045;-56
2021/01/22 00:27:44;;;;;;;10.55;4.75;;;;;;;3.11;96.93;94304.28;971601;30;20458;-58
2021/01/22 00:28:14;;;;;;;8.35;5.00;;;;;;;3.15;96.60;94296.88;986167;30;20111;-64
2021/01/22 00:28:45;;;;;;;8.18;4.95;;;;;;;3.18;97.04;94299.97;986087;30;20032;-58
2021/01/22 00:29:16;;;;;;;6.65;4.32;;;;;;;3.20;96.69;94294.56;978851;30;20165;-57
2021/01/22 00:29:46;;;;;;;7.72;4.28;;;;;;;3.21;96.53;94302.25;986102;30;20038;-55
2021/01/22 00:30:17;;;;;;;6.60;4.20;;;;;;;3.23;96.16;94296.84;982648;30;20024;-55
2021/01/22 00:30:48;;;;;;;8.25;4.30;;;;;;;3.25;95.95;94296.69;986076;30;20035;-56
2021/01/22 00:31:19;;;;;;;8.07;4.55;;;;;;;3.27;96.15;94302.56;982498;30;20024;-60
2021/01/22 00:31:50;;;;;;;8.07;4.72;;;;;;;3.29;96.03;94297.97;982386;30;20029;-55
2021/01/22 00:32:20;;;;;;;8.05;4.78;;;;;;;3.02;95.54;94248.44;982398;30;20133;-57
2021/01/22 00:32:51;;;;;;;6.85;4.00;;;;;;;3.32;95.19;94298.44;978772;30;20098;-57
2021/01/22 00:33:22;;;;;;;7.10;4.47;;;;;;;3.33;95.44;94294.84;986055;30;20055;-58
2021/01/22 00:33:52;;;;;;;7.65;4.60;;;;;;;3.37;95.23;94295.31;982410;30;20098;-62
2021/01/22 00:34:23;;;;;;;6.75;4.40;;;;;;;3.39;95.30;94291.50;981290;30;20056;-59
2021/01/22 00:34:54;;;;;;;6.38;4.05;;;;;;;3.42;95.20;94290.34;978785;30;20037;-62
2021/01/22 00:35:25;;;;;;;7.70;4.72;;;;;;;3.38;94.92;94283.84;978845;30;20049;-58
2021/01/22 00:35:55;;;;;;;8.57;4.78;;;;;;;3.38;94.79;94286.44;978836;30;20047;-56
2021/01/22 00:36:26;;;;;;;7.63;4.50;;;;;;;3.40;94.67;94292.34;975274;30;20120;-56
2021/01/22 00:36:57;;;;;;;6.63;4.20;;;;;;;3.39;94.93;94285.44;971599;30;20034;-55
2021/01/22 00:37:27;;;;;;;10.32;4.90;;;;;;;3.43;94.75;94289.38;986025;30;20066;-56
2021/01/22 00:37:58;;;;;;;8.45;4.72;;;;;;;3.45;94.58;94282.16;982429;30;20028;-55
2021/01/22 00:38:29;;;;;;;9.77;4.97;;;;;;;3.47;94.74;94285.41;982357;30;20032;-57
2021/01/22 00:39:00;;;;;;;8.40;4.47;;;;;;;3.46;94.85;94288.19;971626;30;20397;-57
2021/01/22 00:39:31;;;;;;;7.38;4.25;;;;;;;3.44;94.48;94283.13;978749;30;20052;-59
2021/01/22 00:40:02;;;;;;;7.22;4.28;;;;;;;3.46;94.46;94280.31;982390;30;20484;-59
2021/01/22 00:40:33;;;;;;;7.30;4.45;;;;;;;3.47;94.12;94277.53;978716;30;20112;-58
2021/01/22 00:41:04;;;;;;;9.25;4.47;;;;;;;3.48;94.54;94279.16;978910;30;20029;-57
2021/01/22 00:41:34;;;;;;;9.90;4.88;;;;;;;3.44;94.11;94254.25;986069;30;20114;-60
2021/01/22 00:42:05;;;;;;;7.80;4.75;;;;;;;3.48;94.29;94268.66;982532;30;20119;-57
2021/01/22 00:42:36;;;;;;;6.60;4.18;;;;;;;3.45;94.79;94266.41;982351;30;20040;-57
2021/01/22 00:43:07;;;;;;;8.10;4.72;;;;;;;3.45;94.61;94271.66;982419;30;20041;-61
2021/01/22 00:43:37;;;;;;;7.47;4.75;;;;;;;3.47;94.59;94276.72;978709;30;20070;-55
2021/01/22 00:44:08;;;;;;;9.23;4.68;;;;;;;3.47;94.46;94276.72;975183;30;20093;-57
2021/01/22 00:44:40;;;;;;;6.93;4.40;;;;;;;3.36;94.46;94262.19;982350;30;20045;-55
2021/01/22 00:45:11;;;;;;;8.70;4.43;;;;;;;3.46;94.25;94262.75;978731;30;20415;-61
2021/01/22 00:45:43;;;;;;;7.38;4.00;;;;;;;3.45;94.53;94269.03;982342;30;20116;-55
2021/01/22 00:46:13;;;;;;;9.57;4.38;;;;;;;3.43;94.54;94260.50;978747;30;20057;-57
2021/01/22 00:46:44;;;;;;;8.05;4.43;;;;;;;3.47;94.22;94266.22;978696;30;20020;-60
2021/01/22 00:47:15;;;;;;;7.82;4.38;;;;;;;3.45;94.16;94261.16;982379;30;20016;-55
2021/01/22 00:47:46;;;;;;;9.02;4.53;;;;;;;3.46;94.36;94262.75;971233;30;20021;-58
2021/01/22 00:48:17;;;;;;;7.72;4.00;;;;;;;3.48;94.24;94271.28;978207;30;20047;-59
2021/01/22 00:48:48;;;;;;;6.38;4.20;;;;;;;3.47;94.07;94264.41;978696;30;20521;-58
2021/01/22 00:49:18;;;;;;;7.95;4.50;;;;;;;3.48;94.12;94263.41;975121;30;20048;-60
2021/01/22 00:49:49;;;;;;;7.30;3.92;;;;;;;3.41;94.66;94270.34;986012;30;20047;-58
2021/01/22 00:50:20;;;;;;;7.22;3.80;;;;;;;3.40;94.89;94256.41;978759;30;20088;-55
2021/01/22 00:50:51;;;;;;;6.40;3.72;;;;;;;3.44;94.39;94261.31;986047;30;20020;-55
2021/01/22 00:51:21;;;;;;;7.18;3.97;;;;;;;3.45;94.51;94258.53;986140;30;20031;-60
2021/01/22 00:51:52;;;;;;;8.02;4.10;;;;;;;3.44;94.08;94256.06;986070;30;20053;-58
2021/01/22 00:52:23;;;;;;;7.70;4.60;;;;;;;3.42;93.79;94256.25;982431;30;20016;-56
2021/01/22 00:52:54;;;;;;;8.23;4.30;;;;;;;3.42;94.02;94258.88;978807;30;20023;-58
2021/01/22 00:53:24;;;;;;;7.53;4.18;;;;;;;3.36;94.28;94259.56;978726;30;20025;-55
2021/01/22 00:53:55;;;;;;;7.30;4.40;;;;;;;3.34;93.82;94249.22;978708;30;20035;-57
2021/01/22 00:54:26;;;;;;;9.95;4.88;;;;;;;3.35;94.12;94258.75;982298;30;20024;-58
2021/01/22 00:54:57;;;;;;;7.05;4.38;;;;;;;3.33;94.15;94259.91;967979;30;20458;-58
2021/01/22 00:55:27;;;;;;;8.57;4.65;;;;;;;3.33;94.20;94265.16;975118;30;20029;-57
2021/01/22 00:55:58;;;;;;;9.55;4.85;;;;;;;3.31;94.50;94261.88;978706;30;20031;-57
2021/01/22 00:56:29;;;;;;;9.95;4.90;;;;;;;3.31;94.29;94260.09;975065;30;20020;-57
2021/01/22 00:56:59;;;;;;;9.35;5.13;;;;;;;3.31;94.11;94265.34;982302;30;20027;-58
2021/01/22 00:57:30;;;;;;;7.72;4.82;;;;;;;3.36;93.60;94256.94;975224;30;20028;-57
2021/01/22 00:58:01;;;;;;;9.50;5.32;;;;;;;3.28;94.28;94246.50;986015;30;20115;-57
2021/01/22 00:58:32;;;;;;;9.98;5.60;;;;;;;3.20;94.43;94256.06;978747;30;20016;-58
2021/01/22 00:59:02;;;;;;;11.48;5.70;;;;;;;3.16;94.81;94265.25;971468;30;20041;-61
2021/01/22 00:59:33;;;;;;;9.93;5.82;;;;;;;3.11;95.01;94270.19;978730;30;20385;-61
2021/01/22 01:00:05;;;;;;;11.15;6.03;;;;;;;3.10;95.04;94252.00;978698;30;20029;-57
2021/01/22 01:00:36;;;;;;;11.10;5.97;;;;;;;3.14;94.84;94246.25;978666;30;20021;-60
2021/01/22 01:01:07;;;;;;;9.23;5.68;;;;;;;3.07;95.63;94261.03;982337;30;20020;-58
2021/01/22 01:01:38;;;;;;;10.55;6.22;;;;;;;3.01;95.89;94280.91;982450;30;20064;-58
2021/01/22 01:02:09;;;;;;;9.20;5.65;;;;;;;3.00;95.94;94254.84;985994;30;20020;-57
2021/01/22 01:02:39;;;;;;;10.98;5.95;;;;;;;3.07;95.67;94258.41;974982;30;20018;-62
2021/01/22 01:03:10;;;;;;;10.48;5.75;;;;;;;3.09;95.63;94245.94;975096;30;20048;-64
2021/01/22 01:03:42;;;;;;;10.00;6.13;;;;;;;3.06;95.58;94253.34;982264;30;20028;-56
2021/01/22 01:04:15;;;;;;;10.88;6.78;;;;;;;3.00;95.88;94250.41;978799;30;20031;-60
2021/01/22 01:04:46;;;;;;;10.05;5.82;;;;;;;2.99;95.87;94247.97;975107;30;20029;-60
2021/01/22 01:05:17;;;;;;;9.05;5.70;;;;;;;3.01;95.93;94259.09;975060;30;20025;-64
2021/01/22 01:05:48;;;;;;;9.73;5.53;;;;;;;3.02;96.27;94253.69;978745;30;20024;-58
2021/01/22 01:06:18;;;;;;;10.13;5.55;;;;;;;3.02;96.16;94247.63;978650;30;20337;-56
2021/01/22 01:06:49;;;;;;;10.23;6.13;;;;;;;2.97;96.37;94245.50;982256;30;20032;-59
2021/01/22 01:07:20;;;;;;;8.90;5.38;;;;;;;2.96;96.48;94256.16;982232;30;20128;-58
2021/01/22 01:07:50;;;;;;;10.18;6.00;;;;;;;3.00;96.34;94244.38;978764;30;20068;-61
2021/01/22 01:08:21;;;;;;;9.13;5.68;;;;;;;3.01;96.33;94243.34;978655;30;20396;-58
2021/01/22 01:08:52;;;;;;;10.20;6.07;;;;;;;3.02;96.31;94245.00;975069;30;20090;-56
2021/01/22 01:09:23;;;;;;;11.00;6.22;;;;;;;2.98;96.17;94246.34;978549;30;20472;-58
2021/01/22 01:09:54;;;;;;;9.50;5.57;;;;;;;2.95;96.28;94234.38;978618;30;20035;-61
2021/01/22 01:10:25;;;;;;;9.18;5.65;;;;;;;2.94;96.60;94245.84;982259;30;20027;-56
2021/01/22 01:10:55;;;;;;;10.95;6.28;;;;;;;2.96;96.44;94245.69;985989;30;20020;-59
2021/01/22 01:11:28;;;;;;;9.98;5.75;;;;;;;2.97;96.79;94236.84;978771;30;20491;-57
2021/01/22 01:11:59;;;;;;;11.52;6.35;;;;;;;2.94;97.01;94237.16;975052;30;20111;-60
2021/01/22 01:12:29;;;;;;;12.02;6.60;;;;;;;2.90;96.55;94236.69;975053;30;20029;-59
2021/01/22 01:13:00;;;;;;;10.15;6.35;;;;;;;2.89;97.21;94235.09;985982;30;20028;-61
2021/01/22 01:13:31;;;;;;;10.63;5.32;;;;;;;2.92;96.77;94236.53;986113;30;20031;-62
2021/01/22 01:14:02;;;;;;;10.70;6.50;;;;;;;2.89;96.88;94223.75;975033;30;20128;-57
2021/01/22 01:14:33;;;;;;;10.32;6.20;;;;;;;2.85;97.32;94231.16;978622;30;20036;-59
2021/01/22 01:15:04;;;;;;;9.77;6.00;;;;;;;2.85;97.29;94230.34;985982;30;20031;-65
2021/01/22 01:15:35;;;;;;;11.63;6.22;;;;;;;2.89;96.58;94234.25;978695;30;20094;-57
2021/01/22 01:16:06;;;;;;;11.15;6.38;;;;;;;2.94;96.60;94229.31;978735;30;20078;-57
2021/01/22 01:16:37;;;;;;;9.30;6.03;;;;;;;2.94;96.52;94226.69;978718;30;20449;-58
2021/01/22 01:17:07;;;;;;;10.20;6.10;;;;;;;2.93;96.29;94225.88;982324;30;20032;-57
2021/01/22 01:17:38;;;;;;;9.93;5.72;;;;;;;2.94;96.26;94232.72;982363;30;20065;-59
2021/01/22 01:18:09;;;;;;;11.75;5.55;;;;;;;2.68;96.64;94192.91;978621;30;20029;-63
2021/01/22 01:18:40;;;;;;;11.55;6.30;;;;;;;2.92;96.51;94226.03;982221;30;20032;-57
2021/01/22 01:19:11;;;;;;;10.90;6.00;;;;;;;2.89;96.42;94227.22;982372;30;20043;-62
2021/01/22 01:19:41;;;;;;;9.32;6.22;;;;;;;2.96;96.34;94238.66;978703;30;20060;-58
2021/01/22 01:20:12;;;;;;;10.77;6.03;;;;;;;2.98;96.15;94236.66;985941;30;20106;-55
2021/01/22 01:20:43;;;;;;;9.40;5.60;;;;;;;2.98;95.96;94233.22;982248;30;20035;-60
2021/01/22 01:21:14;;;;;;;11.48;7.00;;;;;;;2.97;96.24;94249.94;982281;30;20051;-55
2021/01/22 01:21:45;;;;;;;11.05;6.32;;;;;;;2.95;95.92;94241.44;982195;30;20131;-58
2021/01/22 01:22:16;;;;;;;9.90;5.82;;;;;;;2.98;95.82;94238.47;974978;30;20430;-56
2021/01/22 01:22:47;;;;;;;9.40;6.03;;;;;;;2.99;96.14;94248.78;978464;30;20557;-57
2021/01/22 01:23:19;;;;;;;8.77;5.47;;;;;;;3.00;96.11;94244.38;989585;30;20027;-62
2021/01/22 01:23:50;;;;;;;9.68;6.00;;;;;;;2.96;95.83;94243.88;982328;30;20021;-62
2021/01/22 01:24:21;;;;;;;10.23;5.90;;;;;;;2.93;95.97;94251.28;978595;30;20124;-59
2021/01/22 01:24:52;;;;;;;10.88;6.10;;;;;;;2.93;95.87;94246.03;982274;30;20111;-63
2021/01/22 01:25:23;;;;;;;11.40;6.80;;;;;;;2.96;96.08;94251.75;978556;30;20392;-59
2021/01/22 01:25:54;;;;;;;9.25;5.55;;;;;;;2.98;95.87;94248.97;986039;30;20020;-58
2021/01/22 01:26:25;;;;;;;10.57;5.93;;;;;;;2.97;95.62;94248.13;985854;30;20498;-60
2021/01/22 01:26:55;;;;;;;8.88;5.63;;;;;;;2.97;95.75;94245.50;982305;30;20029;-56
2021/01/22 01:27:26;;;;;;;11.75;6.38;;;;;;;2.99;95.46;94258.44;985892;30;20028;-63
2021/01/22 01:27:57;;;;;;;10.45;6.35;;;;;;;2.98;95.76;94262.88;971331;30;20615;-62
2021/01/22 01:28:28;;;;;;;9.25;5.60;;;;;;;2.99;95.83;94258.44;978524;30;20032;-61
2021/01/22 01:28:59;;;;;;;10.38;6.15;;;;;;;2.96;95.64;94264.88;982386;30;20367;-58
2021/01/22 01:29:30;;;;;;;11.25;5.95;;;;;;;2.96;96.01;94269.28;978553;30;20023;-64
2021/01/22 01:30:00;;;;;;;10.20;5.90;;;;;;;2.85;96.32;94274.91;982234;30;20483;-58
2021/01/22 01:30:34;;;;;;;10.10;6.28;;;;;;;2.83;96.74;94283.75;982184;30;20028;-58
2021/01/22 01:31:05;;;;;;;10.32;6.07;;;;;;;2.89;96.41;94281.44;982309;30;20097;-62
2021/01/22 01:31:35;;;;;;;10.35;6.15;;;;;;;2.89;96.44;94287.50;971376;30;20540;-61
2021/01/22 01:32:06;;;;;;;10.20;6.10;;;;;;;2.90;96.20;94293.56;971806;30;20024;-65
2021/01/22 01:32:37;;;;;;;11.75;6.30;;;;;;;2.86;96.63;94295.72;979139;30;20024;-57
2021/01/22 01:33:10;;;;;;;10.88;6.15;;;;;;;2.84;96.64;94292.44;978746;30;20472;-62
2021/01/22 01:33:41;;;;;;;9.57;5.50;;;;;;;2.82;97.39;94286.53;978544;30;20056;-58
2021/01/22 01:34:11;;;;;;;9.85;6.15;;;;;;;2.81;96.96;94301.44;977235;30;20515;-57
2021/01/22 01:34:42;;;;;;;9.98;6.03;;;;;;;2.85;96.91;94294.06;985831;30;20039;-58
2021/01/22 01:35:13;;;;;;;11.07;5.80;;;;;;;2.87;96.70;94291.28;978613;30;20040;-62
2021/01/22 01:35:44;;;;;;;9.43;5.53;;;;;;;2.91;96.54;94303.03;971355;30;20034;-59
2021/01/22 01:36:15;;;;;;;10.02;6.07;;;;;;;2.83;97.40;94307.34;982338;30;20032;-62
2021/01/22 01:36:46;;;;;;;11.23;5.72;;;;;;;2.77;97.34;94308.03;985929;30;20040;-61
2021/01/22 01:37:17;;;;;;;11.50;6.25;;;;;;;2.70;97.97;94322.81;978523;30;20036;-62
2021/01/22 01:37:48;;;;;;;10.00;6.10;;;;;;;2.74;98.10;94329.31;978668;30;20548;-57
2021/01/22 01:38:19;;;;;;;8.32;5.30;;;;;;;2.75;97.88;94336.22;978675;30;20520;-63
2021/01/22 01:38:50;;;;;;;12.15;5.88;;;;;;;2.74;98.13;94334.56;979007;30;20040;-59
2021/01/22 01:39:21;;;;;;;8.50;5.43;;;;;;;2.77;98.02;94331.63;982724;30;20511;-60
2021/01/22 01:39:52;;;;;;;10.48;6.07;;;;;;;2.71;98.20;94334.91;982229;30;20033;-61
2021/01/22 01:40:23;;;;;;;11.68;5.80;;;;;;;2.70;98.39;94330.66;982224;30;20039;-61
2021/01/22 01:40:54;;;;;;;10.82;6.07;;;;;;;2.70;98.33;94329.81;982254;30;20040;-59
2021/01/22 01:41:25;;;;;;;8.57;5.32;;;;;;;2.70;98.28;94327.19;982308;30;20044;-59
2021/01/22 01:41:56;;;;;;;9.43;6.05;;;;;;;2.65;98.53;94325.09;982199;30;20028;-61
2021/01/22 01:42:27;;;;;;;9.77;6.07;;;;;;;2.72;98.44;94333.94;982243;30;20049;-63
2021/01/22 01:42:58;;;;;;;9.50;6.15;;;;;;;2.74;98.57;94333.75;982074;30;20131;-60
2021/01/22 01:43:29;;;;;;;10.38;6.10;;;;;;;2.76;98.36;94337.03;982319;30;20144;-61
2021/01/22 01:43:59;;;;;;;10.60;6.38;;;;;;;2.74;98.29;94333.75;974985;30;20025;-57
2021/01/22 01:44:30;;;;;;;10.13;6.30;;;;;;;2.74;98.34;94329.31;975212;30;20025;-61
2021/01/22 01:45:02;;;;;;;10.52;6.00;;;;;;;2.76;98.48;94331.78;982144;30;20123;-59
2021/01/22 01:45:36;;;;;;;9.77;5.85;;;;;;;2.79;98.17;94328.84;978585;30;20123;-61
2021/01/22 01:46:07;;;;;;;10.45;5.97;;;;;;;2.80;98.22;94322.59;982250;30;20111;-62
2021/01/22 01:46:38;;;;;;;11.15;6.30;;;;;;;2.82;97.98;94323.22;982935;30;20016;-57
2021/01/22 01:47:09;;;;;;;10.50;6.28;;;;;;;2.81;97.93;94317.19;982170;30;20031;-58
2021/01/22 01:47:39;;;;;;;11.07;5.85;;;;;;;2.82;98.28;94326.69;982079;30;20028;-64
2021/01/22 01:48:11;;;;;;;11.60;6.63;;;;;;;2.79;98.20;94318.34;971294;30;20029;-65
2021/01/22 01:48:42;;;;;;;11.68;5.95;;;;;;;2.82;97.93;94321.44;982186;30;20487;-55
2021/01/22 01:49:12;;;;;;;11.10;6.22;;;;;;;2.81;98.03;94330.28;978616;30;20064;-55
2021/01/22 01:49:43;;;;;;;10.88;6.18;;;;;;;2.81;98.15;94322.41;978650;30;20104;-58
2021/01/22 01:50:14;;;;;;;11.48;6.50;;;;;;;2.87;98.19;94325.34;982350;30;20028;-61
2021/01/22 01:50:45;;;;;;;9.77;5.50;;;;;;;2.86;97.96;94321.09;982234;30;20055;-60
2021/01/22 01:51:16;;;;;;;9.88;6.13;;;;;;;2.86;98.20;94316.69;982196;30;20027;-59
2021/01/22 01:51:47;;;;;;;9.73;6.07;;;;;;;2.88;97.68;94322.56;978490;30;20473;-64
2021/01/22 01:52:18;;;;;;;10.93;6.28;;;;;;;2.89;97.83;94318.13;978548;30;20032;-62
2021/01/22 01:52:48;;;;;;;10.48;6.45;;;;;;;2.83;97.75;94317.81;982166;30;20039;-60
2021/01/22 01:53:19;;;;;;;10.32;6.03;;;;;;;2.83;98.36;94311.78;982101;30;20037;-63
2021/01/22 01:53:50;;;;;;;9.88;5.57;;;;;;;2.74;98.66;94318.03;978637;30;20029;-57
2021/01/22 01:54:21;;;;;;;10.23;6.00;;;;;;;2.75;99.20;94317.03;985775;30;20608;-57
2021/01/22 01:54:52;;;;;;;10.00;6.25;;;;;;;2.76;98.95;94308.19;982106;30;20032;-58
2021/01/22 01:55:23;;;;;;;10.07;6.05;;;;;;;2.80;99.00;94317.34;978585;30;20079;-57
2021/01/22 01:55:54;;;;;;;12.38;6.70;;;;;;;2.81;98.65;94304.06;978577;30;20043;-57
2021/01/22 01:56:25;;;;;;;11.48;6.15;;;;;;;2.78;98.62;94296.53;985927;30;20529;-61
2021/01/22 01:56:56;;;;;;;9.55;5.97;;;;;;;2.80;98.44;94294.59;978626;30;20040;-58
2021/01/22 01:57:27;;;;;;;10.50;5.80;;;;;;;2.78;98.68;94293.91;982145;30;20020;-55
2021/01/22 01:57:58;;;;;;;10.82;6.80;;;;;;;2.69;99.57;94284.47;974870;30;20037;-57
2021/01/22 01:58:29;;;;;;;10.35;6.20;;;;;;;2.58;100.00;94272.53;978495;30;20029;-55
2021/01/22 01:59:00;;;;;;;9.32;5.38;;;;;;;2.62;100.00;94284.31;982072;30;20031;-56
2021/01/22 01:59:31;;;;;;;9.52;5.82;;;;;;;2.62;100.00;94280.88;985693;30;20494;-60
2021/01/22 02:00:04;;;;;;;9.70;5.97;;;;;;;2.63;100.00;94275.47;974844;30;20029;-58
2021/01/22 02:00:35;;;;;;;10.35;6.25;;;;;;;2.64;100.00;94281.53;978499;30;20071;-59
2021/01/22 02:01:08;;;;;;;10.38;6.15;;;;;;;2.67;100.00;94278.56;982131;30;20034;-56
2021/01/22 02:01:39;;;;;;;10.70;5.63;;;;;;;2.66;100.00;94271.69;989456;30;20110;-64
2021/01/22 02:02:10;;;;;;;10.68;5.97;;;;;;;2.69;100.00;94279.22;989638;30;20495;-56
2021/01/22 02:02:40;;;;;;;9.95;6.50;;;;;;;2.72;99.98;94281.50;982121;30;20101;-56
2021/01/22 02:03:11;;;;;;;11.30;5.93;;;;;;;2.72;100.00;94289.38;978486;30;20135;-60
2021/01/22 02:03:42;;;;;;;9.95;5.57;;;;;;;2.74;100.00;94287.41;985731;30;20027;-62
2021/01/22 02:04:13;;;;;;;9.50;5.93;;;;;;;2.69;99.96;94273.97;985881;30;20468;-56
2021/01/22 02:04:43;;;;;;;9.73;6.03;;;;;;;2.71;100.00;94289.53;982101;30;20024;-58
2021/01/22 02:05:14;;;;;;;10.52;5.80;;;;;;;2.73;100.00;94284.94;985790;30;20027;-60
2021/01/22 02:05:45;;;;;;;9.15;5.43;;;;;;;2.75;99.80;94285.56;974851;30;20029;-58
2021/01/22 02:06:16;;;;;;;8.65;5.43;;;;;;;2.76;99.48;94290.66;982257;30;20031;-59
2021/01/22 02:06:47;;;;;;;10.20;6.07;;;;;;;2.75;99.41;94289.03;982105;30;20036;-59
2021/01/22 02:07:17;;;;;;;8.50;5.68;;;;;;;2.74;99.59;94291.81;974931;30;20025;-58
2021/01/22 02:07:48;;;;;;;8.80;5.70;;;;;;;2.71;99.78;94286.91;978435;30;20024;-62
2021/01/22 02:08:19;;;;;;;11.18;6.10;;;;;;;2.75;99.68;94289.03;982641;30;20069;-66
2021/01/22 02:08:50;;;;;;;10.93;5.72;;;;;;;2.77;99.35;94287.06;986138;30;20020;-60
2021/01/22 02:09:21;;;;;;;8.43;5.28;;;;;;;2.66;99.67;94290.03;974834;30;20033;-61
2021/01/22 02:09:52;;;;;;;9.00;6.10;;;;;;;2.66;100.00;94287.41;985760;30;20066;-58
2021/01/22 02:10:22;;;;;;;8.35;5.65;;;;;;;2.71;99.72;94287.72;974937;30;20025;-56
2021/01/22 02:10:53;;;;;;;10.15;5.88;;;;;;;2.73;99.75;94283.13;978426;30;20064;-57
2021/01/22 02:11:25;;;;;;;10.40;6.15;;;;;;;2.74;99.64;94283.97;978530;30;20035;-60
2021/01/22 02:11:56;;;;;;;10.63;6.40;;;;;;;2.64;100.00;94281.53;985840;30;20020;-59
2021/01/22 02:12:27;;;;;;;9.60;6.28;;;;;;;2.61;100.00;94289.72;985778;30;20032;-56
2021/01/22 02:12:58;;;;;;;9.73;6.20;;;;;;;2.64;100.00;94286.78;974826;30;20115;-56
2021/01/22 02:13:53;;;;;;;8.93;5.57;;;;;;;2.68;99.93;94282.00;982124;30;20038;-64
2021/01/22 02:14:24;;;;;;;9.25;5.53;;;;;;;2.71;99.97;94281.69;985799;30;20040;-60
2021/01/22 02:14:55;;;;;;;9.25;5.28;;;;;;;2.71;99.58;94282.47;989422;30;20474;-64
2021/01/22 02:15:25;;;;;;;7.57;5.00;;;;;;;2.72;99.48;94284.13;982068;30;20028;-62
2021/01/22 02:15:57;;;;;;;9.00;5.20;;;;;;;2.70;99.50;94275.63;971201;30;20033;-58
2021/01/22 02:16:28;;;;;;;9.63;5.40;;;;;;;2.71;99.45;94279.88;982099;30;20567;-65
2021/01/22 02:16:59;;;;;;;10.65;5.68;;;;;;;2.72;99.47;94276.25;985710;30;20024;-61
2021/01/22 02:17:30;;;;;;;8.60;5.65;;;;;;;2.73;99.29;94279.69;985751;30;20031;-57
2021/01/22 02:18:00;;;;;;;10.52;5.55;;;;;;;2.71;99.30;94282.47;978419;30;20028;-58
2021/01/22 02:18:43;;;;;;;9.68;5.95;;;;;;;2.58;100.00;94296.13;978411;30;20033;-63
2021/01/22 02:19:14;;;;;;;12.38;5.07;;;;;;;2.58;100.00;94295.31;989432;30;20061;-60
2021/01/22 02:19:55;;;;;;;8.10;5.50;;;;;;;2.58;99.97;94298.75;982078;30;20090;-57
2021/01/22 02:20:31;;;;;;;10.18;6.00;;;;;;;2.60;100.00;94306.44;974755;30;20032;-55
2021/01/22 02:21:14;;;;;;;7.75;4.65;;;;;;;2.59;100.00;94310.03;978386;30;20481;-56
2021/01/22 02:21:46;;;;;;;8.02;5.00;;;;;;;2.59;100.00;94304.78;978451;30;20132;-57
2021/01/22 02:22:17;;;;;;;9.35;5.38;;;;;;;2.58;100.00;94308.41;982032;30;20108;-57
2021/01/22 02:22:48;;;;;;;9.25;5.57;;;;;;;2.58;100.00;94305.81;982036;30;20020;-55
2021/01/22 02:23:20;;;;;;;8.00;4.80;;;;;;;2.58;100.00;94314.47;982128;30;20032;-59
2021/01/22 02:23:53;;;;;;;9.32;4.95;;;;;;;2.59;100.00;94312.66;989333;30;20015;-55
2021/01/22 02:24:24;;;;;;;9.32;5.05;;;;;;;2.58;100.00;94308.41;989476;30;20091;-57
2021/01/22 02:24:56;;;;;;;11.43;5.80;;;;;;;2.58;100.00;94305.81;974791;30;20025;-55
2021/01/22 02:25:36;;;;;;;8.82;5.32;;;;;;;2.59;100.00;94318.72;974853;30;20125;-55
2021/01/22 02:26:16;;;;;;;8.65;4.68;;;;;;;2.57;100.00;94318.06;982128;30;20024;-58
2021/01/22 02:26:56;;;;;;;9.05;5.35;;;;;;;2.57;100.00;94310.19;985822;30;20045;-58
2021/01/22 02:27:27;;;;;;;11.02;5.05;;;;;;;2.55;100.00;94319.22;982039;30;20028;-59
2021/01/22 02:27:58;;;;;;;7.70;4.53;;;;;;;2.54;100.00;94320.19;978502;30;20052;-60
2021/01/22 02:28:28;;;;;;;8.57;4.50;;;;;;;2.55;100.00;94320.03;974801;30;20032;-60
2021/01/22 02:29:06;;;;;;;7.03;4.35;;;;;;;2.49;100.00;94307.63;985693;30;20440;-60
2021/01/22 02:29:37;;;;;;;8.27;4.80;;;;;;;2.55;100.00;94324.47;978541;30;20030;-57
2021/01/22 02:30:08;;;;;;;7.60;4.43;;;;;;;2.52;100.00;94314.31;978432;30;20025;-57